Time;durP1;ratioP1;P1;durP2;ratioP2;P2;SDS_P1;SDS_P2;PMS_P1;PMS_P2;Temp;Humidity;BMP_temperature;BMP_pressure;BME280_temperature;BME280_humidity;BME280_pressure;Samples;Min_cycle;Max_cycle;Signal;HPM_P1;HPM_P2
2022/03/15 00:00:38;;;;;;;51.70;23.77;;;2.00;99.90;;;;;;5001440;28;20049;-92
2022/03/15 00:03:04;;;;;;;54.57;22.93;;;2.00;99.90;;;;;;5001330;28;20509;-96
2022/03/15 00:05:30;;;;;;;45.43;20.00;;;2.30;99.90;;;;;;4985002;28;20088;-88
2022/03/15 00:07:56;;;;;;;35.83;19.33;;;2.00;99.90;;;;;;5016924;28;20045;-90
2022/03/15 00:10:22;;;;;;;43.23;19.13;;;2.00;99.90;;;;;;4984746;28;20046;-94
2022/03/15 00:12:49;;;;;;;47.97;18.67;;;2.00;99.90;;;;;;5001291;28;20041;-96
2022/03/15 00:15:15;;;;;;;48.23;18.00;;;2.00;99.90;;;;;;5001151;28;20416;-94
2022/03/15 00:17:42;;;;;;;53.10;19.27;;;1.90;99.90;;;;;;4984762;28;20037;-95
2022/03/15 00:20:11;;;;;;;41.30;18.27;;;1.90;99.90;;;;;;5000789;28;20073;-90
2022/03/15 00:22:37;;;;;;;45.27;19.10;;;1.90;99.90;;;;;;5016960;28;20428;-90
2022/03/15 00:25:09;;;;;;;37.00;18.73;;;1.90;99.90;;;;;;4984459;28;20077;-94
2022/03/15 00:27:35;;;;;;;42.87;17.47;;;1.80;99.90;;;;;;5016936;28;20045;-94
2022/03/15 00:30:05;;;;;;;39.63;16.37;;;1.80;99.90;;;;;;5000742;28;20558;-90
2022/03/15 00:32:32;;;;;;;36.83;17.03;;;1.80;99.90;;;;;;5016837;28;20136;-95
2022/03/15 00:34:57;;;;;;;38.63;17.87;;;1.70;99.90;;;;;;5000662;28;20045;-96
2022/03/15 00:37:23;;;;;;;49.17;18.03;;;1.70;99.90;;;;;;5000309;28;20048;-94
2022/03/15 00:39:50;;;;;;;39.97;17.50;;;1.60;99.90;;;;;;5000433;28;20041;-94
2022/03/15 00:42:17;;;;;;;39.87;18.83;;;1.60;99.90;;;;;;5001199;28;20045;-90
2022/03/15 00:44:43;;;;;;;46.60;19.90;;;1.60;99.90;;;;;;5016660;28;20131;-90
2022/03/15 00:47:10;;;;;;;48.67;19.87;;;1.60;99.90;;;;;;5016453;28;20041;-90
2022/03/15 00:49:36;;;;;;;51.83;19.57;;;1.60;99.90;;;;;;5000170;28;20068;-94
2022/03/15 00:52:02;;;;;;;42.83;20.17;;;1.70;99.90;;;;;;5016276;28;20049;-90
2022/03/15 00:54:28;;;;;;;47.23;18.83;;;1.70;99.90;;;;;;5018628;28;20521;-90
2022/03/15 00:56:54;;;;;;;41.67;19.00;;;1.70;99.90;;;;;;5000385;28;20160;-94
2022/03/15 00:59:20;;;;;;;40.60;18.37;;;1.60;99.90;;;;;;5000195;28;20108;-94
2022/03/15 01:01:46;;;;;;;40.73;17.87;;;1.60;99.90;;;;;;4984011;28;20076;-90
2022/03/15 01:04:12;;;;;;;36.10;16.37;;;1.50;99.90;;;;;;5000178;28;20045;-95
2022/03/15 01:06:39;;;;;;;38.57;18.13;;;1.50;99.90;;;;;;5016483;28;20500;-89
2022/03/15 01:09:09;;;;;;;33.23;18.00;;;1.40;99.90;;;;;;5000287;28;20128;-90
2022/03/15 01:11:35;;;;;;;36.13;16.27;;;1.40;99.90;;;;;;5016457;28;20049;-95
2022/03/15 01:14:01;;;;;;;43.53;16.07;;;1.30;99.90;;;;;;5000274;28;20496;-94
2022/03/15 01:16:26;;;;;;;42.27;18.43;;;1.20;99.90;;;;;;4983785;28;20053;-95
2022/03/15 01:18:52;;;;;;;44.10;18.10;;;1.20;99.90;;;;;;5000801;28;20485;-94
2022/03/15 01:21:19;;;;;;;39.57;16.23;;;1.20;99.90;;;;;;5004012;28;20045;-96
2022/03/15 01:23:45;;;;;;;49.30;21.27;;;1.10;99.90;;;;;;5004595;28;20061;-95
2022/03/15 01:26:11;;;;;;;55.10;20.27;;;1.10;99.90;;;;;;5020312;28;20068;-91
2022/03/15 01:28:37;;;;;;;56.97;22.27;;;1.10;99.90;;;;;;5003730;28;20045;-95
2022/03/15 01:31:03;;;;;;;50.80;23.77;;;1.10;99.90;;;;;;5003689;28;20133;-90
2022/03/15 01:33:28;;;;;;;54.00;23.47;;;1.10;99.90;;;;;;4987327;28;20049;-90
2022/03/15 01:35:54;;;;;;;64.83;25.23;;;1.20;99.90;;;;;;5004568;28;20041;-95
2022/03/15 01:38:20;;;;;;;61.63;25.40;;;1.20;99.90;;;;;;4987649;28;20041;-89
2022/03/15 01:40:46;;;;;;;56.33;25.67;;;1.40;99.90;;;;;;5003508;28;20057;-94
2022/03/15 01:43:12;;;;;;;65.77;25.60;;;1.30;99.90;;;;;;5020293;28;20404;-90
2022/03/15 01:45:41;;;;;;;58.00;25.33;;;1.50;99.90;;;;;;5003511;28;20045;-88
2022/03/15 01:48:08;;;;;;;68.90;26.80;;;1.40;99.90;;;;;;5003531;28;20053;-90
2022/03/15 01:50:35;;;;;;;59.23;25.90;;;1.40;99.90;;;;;;4987502;28;20048;-89
2022/03/15 01:53:01;;;;;;;60.13;23.50;;;1.30;99.90;;;;;;5003511;28;20068;-90
2022/03/15 01:55:27;;;;;;;62.37;22.90;;;1.30;99.90;;;;;;5003676;28;20100;-91
2022/03/15 01:57:54;;;;;;;64.63;22.50;;;1.30;99.90;;;;;;4987227;28;20096;-90
2022/03/15 02:00:20;;;;;;;56.30;21.60;;;1.20;99.90;;;;;;5019651;28;20041;-95
2022/03/15 02:02:47;;;;;;;56.70;23.40;;;1.10;99.90;;;;;;5019681;28;20046;-95
2022/03/15 02:05:13;;;;;;;62.97;25.67;;;1.10;99.90;;;;;;5019501;28;20073;-90
2022/03/15 02:07:39;;;;;;;74.43;24.03;;;1.10;99.90;;;;;;5019412;28;20038;-90
2022/03/15 02:10:06;;;;;;;70.17;27.23;;;1.10;99.90;;;;;;5019327;28;20045;-92
2022/03/15 02:12:36;;;;;;;65.93;28.27;;;1.20;99.90;;;;;;5019369;28;20045;-90
2022/03/15 02:15:03;;;;;;;74.30;30.10;;;1.20;99.90;;;;;;4988083;28;20087;-90
2022/03/15 02:17:29;;;;;;;68.60;28.73;;;1.30;99.90;;;;;;5003836;28;20108;-90
2022/03/15 02:19:56;;;;;;;69.93;29.67;;;1.50;99.90;;;;;;4987236;28;20626;-94
2022/03/15 02:22:25;;;;;;;84.80;32.33;;;1.50;99.90;;;;;;4986860;28;20076;-90
2022/03/15 02:24:51;;;;;;;79.17;33.00;;;1.60;99.90;;;;;;4987715;28;20291;-95
2022/03/15 02:27:20;;;;;;;80.17;33.40;;;1.70;99.90;;;;;;4986908;28;20447;-91
2022/03/15 02:29:46;;;;;;;84.77;35.77;;;1.90;99.90;;;;;;5035185;28;20052;-90
2022/03/15 02:32:11;;;;;;;93.17;38.60;;;2.00;99.90;;;;;;5002634;28;20054;-95
2022/03/15 02:34:37;;;;;;;99.60;39.47;;;2.10;99.90;;;;;;5002955;28;20042;-90
2022/03/15 02:37:03;;;;;;;90.27;37.63;;;2.30;99.90;;;;;;5002479;28;20037;-91
2022/03/15 02:39:29;;;;;;;85.17;39.40;;;2.40;99.90;;;;;;5035651;28;20045;-95
2022/03/15 02:41:55;;;;;;;96.17;41.20;;;2.50;99.90;;;;;;4986469;28;20049;-95
2022/03/15 02:44:23;;;;;;;92.50;41.37;;;2.60;99.90;;;;;;5035290;28;20132;-90
2022/03/15 02:46:50;;;;;;;96.50;39.80;;;2.70;99.90;;;;;;4987011;28;20128;-95
2022/03/15 02:49:16;;;;;;;92.47;40.83;;;2.80;99.90;;;;;;5018870;28;20051;-91
2022/03/15 02:51:42;;;;;;;111.10;41.87;;;2.80;99.90;;;;;;5018730;28;20046;-90
2022/03/15 02:54:11;;;;;;;95.73;40.17;;;3.00;99.90;;;;;;5018989;28;20459;-91
2022/03/15 02:56:42;;;;;;;97.67;41.57;;;3.00;99.90;;;;;;5002782;28;20053;-90
2022/03/15 02:59:15;;;;;;;109.67;42.33;;;3.00;99.90;;;;;;5018675;28;20058;-95
2022/03/15 03:01:45;;;;;;;90.35;40.08;;;3.10;99.90;;;;;;5018637;28;20048;-95
2022/03/15 03:04:11;;;;;;;91.30;41.03;;;3.10;99.90;;;;;;5002762;28;20053;-94
2022/03/15 03:06:37;;;;;;;92.53;38.80;;;3.20;99.90;;;;;;5002152;28;20064;-94
2022/03/15 03:09:04;;;;;;;108.10;40.65;;;3.20;99.90;;;;;;5002224;28;20072;-90
2022/03/15 03:11:30;;;;;;;103.47;39.45;;;3.30;99.90;;;;;;5002038;28;20136;-90
2022/03/15 03:13:57;;;;;;;89.28;38.90;;;3.30;99.90;;;;;;5018399;28;20038;-90
2022/03/15 03:16:24;;;;;;;87.88;36.33;;;3.40;99.90;;;;;;5017996;28;20042;-91
2022/03/15 03:18:54;;;;;;;80.10;34.78;;;3.40;99.90;;;;;;5018008;28;20180;-95
2022/03/15 03:21:21;;;;;;;75.95;33.58;;;3.40;99.90;;;;;;5001938;28;20048;-90
2022/03/15 03:23:46;;;;;;;90.00;35.70;;;3.40;99.90;;;;;;5002104;28;20045;-91
2022/03/15 03:26:12;;;;;;;71.00;32.58;;;3.40;99.90;;;;;;5035081;28;20400;-95
2022/03/15 03:28:38;;;;;;;82.80;34.42;;;3.40;99.90;;;;;;4985965;28;20052;-95
2022/03/15 03:31:09;;;;;;;79.47;33.97;;;3.50;99.90;;;;;;4985846;28;20096;-95
2022/03/15 03:33:35;;;;;;;72.15;34.38;;;3.50;99.90;;;;;;5018427;28;20048;-91
2022/03/15 03:36:02;;;;;;;92.85;38.45;;;3.50;99.90;;;;;;5018020;28;20447;-90
2022/03/15 03:38:29;;;;;;;88.55;38.08;;;3.50;99.90;;;;;;5017967;28;20052;-95
2022/03/15 03:40:55;;;;;;;89.85;36.72;;;3.70;99.90;;;;;;5017620;28;20045;-90
2022/03/15 03:43:21;;;;;;;99.63;38.20;;;3.60;99.90;;;;;;5017519;28;20377;-95
2022/03/15 03:45:46;;;;;;;94.22;39.25;;;3.60;99.90;;;;;;5001602;28;20080;-95
2022/03/15 03:48:12;;;;;;;101.32;38.83;;;3.60;99.90;;;;;;4985337;28;20052;-91
2022/03/15 03:50:39;;;;;;;74.80;34.67;;;3.60;99.90;;;;;;4985276;28;20518;-92
2022/03/15 03:53:06;;;;;;;91.22;35.72;;;3.80;99.90;;;;;;4985223;28;20091;-95
2022/03/15 03:55:32;;;;;;;74.75;33.85;;;3.60;99.90;;;;;;5017726;28;20581;-90
2022/03/15 03:57:59;;;;;;;76.53;36.17;;;3.60;99.90;;;;;;5003440;28;20044;-94
2022/03/15 04:00:26;;;;;;;73.90;33.92;;;3.50;99.90;;;;;;5017403;28;20056;-95
2022/03/15 04:02:53;;;;;;;81.43;34.90;;;3.70;99.90;;;;;;5017556;28;20041;-90
2022/03/15 04:05:19;;;;;;;66.40;34.53;;;3.60;99.90;;;;;;5017294;28;20047;-90
2022/03/15 04:07:46;;;;;;;93.38;37.10;;;3.60;99.90;;;;;;5017185;28;20060;-92
2022/03/15 04:10:12;;;;;;;89.68;36.58;;;3.60;99.90;;;;;;5001046;28;20128;-91
2022/03/15 04:12:38;;;;;;;81.13;35.88;;;3.60;99.90;;;;;;5017260;28;20041;-94
2022/03/15 04:15:05;;;;;;;89.30;37.35;;;3.80;99.90;;;;;;5000984;28;20137;-94
2022/03/15 04:17:32;;;;;;;82.20;36.97;;;3.70;99.90;;;;;;5017150;28;20444;-95
2022/03/15 04:19:58;;;;;;;77.18;35.50;;;3.80;99.90;;;;;;5017528;28;20052;-95
2022/03/15 04:22:23;;;;;;;80.97;36.65;;;3.70;99.90;;;;;;5017179;28;20484;-90
2022/03/15 04:24:49;;;;;;;91.90;39.05;;;3.70;99.90;;;;;;5017407;28;20107;-90
2022/03/15 04:27:16;;;;;;;79.82;36.20;;;3.70;99.90;;;;;;4984257;28;20049;-91
2022/03/15 04:29:42;;;;;;;91.80;38.15;;;3.80;99.90;;;;;;5001177;28;20278;-90
2022/03/15 04:32:09;;;;;;;72.72;33.10;;;3.80;99.90;;;;;;5001021;28;20117;-95
2022/03/15 04:34:35;;;;;;;72.97;34.35;;;3.80;99.90;;;;;;5017061;28;20195;-95
2022/03/15 04:37:01;;;;;;;72.95;34.00;;;3.90;99.90;;;;;;4984335;28;20049;-94
2022/03/15 04:39:27;;;;;;;91.45;36.85;;;3.80;99.90;;;;;;5017060;28;20045;-90
2022/03/15 04:41:52;;;;;;;84.55;36.45;;;3.80;99.90;;;;;;5016813;28;20049;-95
2022/03/15 04:44:18;;;;;;;79.13;35.38;;;3.90;99.90;;;;;;4984079;28;20132;-92
2022/03/15 04:46:44;;;;;;;85.88;34.70;;;4.00;99.90;;;;;;4984046;28;20049;-90
2022/03/15 04:49:10;;;;;;;89.32;36.88;;;4.20;99.90;;;;;;5016636;28;20523;-95
2022/03/15 04:51:36;;;;;;;85.00;35.88;;;4.00;99.90;;;;;;5000138;28;20503;-91
2022/03/15 04:54:02;;;;;;;82.70;37.42;;;4.00;99.90;;;;;;5000729;28;20152;-94
2022/03/15 04:56:28;;;;;;;95.68;40.53;;;4.00;99.90;;;;;;4983737;28;20182;-91
2022/03/15 04:58:53;;;;;;;89.93;38.13;;;4.10;99.90;;;;;;5016255;28;20080;-94
2022/03/15 05:01:19;;;;;;;94.53;39.10;;;4.10;99.90;;;;;;5033009;28;20400;-90
2022/03/15 05:03:45;;;;;;;92.55;36.83;;;4.20;99.90;;;;;;5000218;28;20053;-94
2022/03/15 05:06:11;;;;;;;78.72;37.85;;;4.30;99.90;;;;;;4983793;28;20053;-94
2022/03/15 05:08:36;;;;;;;86.68;37.42;;;4.40;99.90;;;;;;5017172;28;20045;-90
2022/03/15 05:11:09;;;;;;;101.97;40.40;;;4.20;99.90;;;;;;4999963;28;20088;-91
2022/03/15 05:13:45;;;;;;;87.05;37.50;;;4.30;99.90;;;;;;5000965;28;20049;-95
2022/03/15 05:16:13;;;;;;;91.22;37.53;;;4.30;99.90;;;;;;5016060;28;20038;-95
2022/03/15 05:18:40;;;;;;;91.90;38.67;;;4.30;99.90;;;;;;5016385;28;20052;-94
2022/03/15 05:21:07;;;;;;;78.13;35.67;;;4.30;99.90;;;;;;5016687;28;20052;-95
2022/03/15 05:23:34;;;;;;;77.25;35.38;;;4.40;99.90;;;;;;4999843;28;20060;-94
2022/03/15 05:26:00;;;;;;;77.97;32.58;;;4.30;99.90;;;;;;5000331;28;20052;-94
2022/03/15 05:28:26;;;;;;;70.40;33.30;;;4.30;99.90;;;;;;5000126;28;20041;-91
2022/03/15 05:30:53;;;;;;;74.90;33.97;;;4.20;99.90;;;;;;5016116;28;20041;-91
2022/03/15 05:33:19;;;;;;;77.53;37.45;;;4.20;99.90;;;;;;5016261;28;20073;-94
2022/03/15 05:35:44;;;;;;;71.50;36.00;;;4.20;99.90;;;;;;5000162;28;20448;-94
2022/03/15 05:38:10;;;;;;;88.10;39.28;;;4.10;99.90;;;;;;5000023;28;20384;-91
2022/03/15 05:40:38;;;;;;;74.18;36.22;;;4.10;99.90;;;;;;5001572;28;20046;-90
2022/03/15 05:43:04;;;;;;;88.45;38.92;;;4.10;99.90;;;;;;5016212;28;20045;-94
2022/03/15 05:45:31;;;;;;;86.30;37.20;;;4.10;99.90;;;;;;4999710;28;20041;-93
2022/03/15 05:47:56;;;;;;;73.93;36.97;;;4.10;99.90;;;;;;5016080;28;20515;-94
2022/03/15 05:50:23;;;;;;;94.35;40.40;;;4.30;99.90;;;;;;4983546;28;20124;-91
2022/03/15 05:52:49;;;;;;;92.65;41.13;;;4.10;99.90;;;;;;4999216;28;20415;-96
2022/03/15 05:55:14;;;;;;;85.68;39.75;;;4.10;99.90;;;;;;5016053;28;20136;-95
2022/03/15 05:57:41;;;;;;;92.28;39.53;;;4.20;99.90;;;;;;4983471;28;20136;-91
2022/03/15 06:00:07;;;;;;;83.95;38.75;;;4.10;99.90;;;;;;4983733;28;20046;-92
2022/03/15 06:02:33;;;;;;;90.30;40.92;;;4.10;99.90;;;;;;4999590;28;20037;-94
2022/03/15 06:04:59;;;;;;;79.47;38.65;;;4.20;99.90;;;;;;5017314;28;20040;-93
2022/03/15 06:07:28;;;;;;;87.82;39.45;;;4.20;99.90;;;;;;5020078;28;20084;-91
2022/03/15 06:09:54;;;;;;;87.88;38.97;;;4.20;99.90;;;;;;5035901;28;20037;-95
2022/03/15 06:12:20;;;;;;;92.55;40.75;;;4.20;99.90;;;;;;4987018;28;20047;-91
2022/03/15 06:14:47;;;;;;;79.43;37.15;;;4.20;99.90;;;;;;4987482;28;20045;-95
2022/03/15 06:17:13;;;;;;;80.80;39.80;;;4.20;99.90;;;;;;5003348;28;20107;-94
2022/03/15 06:19:39;;;;;;;83.57;38.00;;;4.20;99.90;;;;;;4986811;28;20049;-95
2022/03/15 06:22:04;;;;;;;108.15;43.30;;;4.40;99.90;;;;;;4986633;28;20537;-95
2022/03/15 06:24:31;;;;;;;98.28;42.17;;;4.30;99.90;;;;;;5019373;28;20037;-90
2022/03/15 06:26:58;;;;;;;89.82;38.22;;;4.30;99.90;;;;;;5035878;28;20396;-94
2022/03/15 06:29:25;;;;;;;89.35;39.35;;;4.50;99.90;;;;;;5020336;28;20120;-91
2022/03/15 06:31:51;;;;;;;100.03;42.08;;;4.40;99.90;;;;;;5003752;28;20138;-95
2022/03/15 06:34:16;;;;;;;91.38;37.63;;;4.60;99.90;;;;;;5019183;28;20084;-90
2022/03/15 06:36:42;;;;;;;83.15;38.70;;;4.50;99.90;;;;;;5002851;28;20053;-94
2022/03/15 06:39:08;;;;;;;99.80;41.30;;;4.60;99.90;;;;;;4986435;28;20052;-94
2022/03/15 06:41:38;;;;;;;88.07;39.25;;;4.60;99.90;;;;;;4986191;28;20072;-91
2022/03/15 06:44:07;;;;;;;88.82;40.78;;;4.60;99.90;;;;;;4988252;28;20502;-90
2022/03/15 06:46:33;;;;;;;85.60;38.80;;;4.70;99.90;;;;;;4986632;28;20071;-90
2022/03/15 06:48:59;;;;;;;92.53;39.38;;;4.80;99.90;;;;;;4986629;28;20059;-90
2022/03/15 06:51:25;;;;;;;86.72;35.97;;;4.90;99.90;;;;;;5002237;28;20049;-94
2022/03/15 06:53:52;;;;;;;88.95;36.95;;;4.80;99.90;;;;;;5018569;28;20071;-91
2022/03/15 06:56:18;;;;;;;79.97;35.50;;;4.80;99.90;;;;;;5002346;28;20037;-91
2022/03/15 06:58:44;;;;;;;73.05;32.42;;;4.90;99.90;;;;;;4988221;28;20041;-91
2022/03/15 07:01:10;;;;;;;83.88;35.20;;;4.90;99.90;;;;;;4985928;28;20523;-94
2022/03/15 07:03:36;;;;;;;81.53;34.83;;;4.90;99.90;;;;;;5002330;28;20041;-91
2022/03/15 07:06:02;;;;;;;72.93;34.78;;;4.90;99.90;;;;;;5018331;28;20127;-95
2022/03/15 07:08:29;;;;;;;71.70;34.00;;;5.00;99.90;;;;;;5002417;28;20056;-91
2022/03/15 07:10:55;;;;;;;74.57;35.55;;;5.00;99.90;;;;;;5001981;28;20080;-93
2022/03/15 07:13:21;;;;;;;78.35;34.35;;;5.00;99.90;;;;;;5018776;28;20049;-93
2022/03/15 07:15:46;;;;;;;72.32;36.00;;;5.10;99.90;;;;;;5034130;28;20136;-94
2022/03/15 07:18:15;;;;;;;73.72;34.50;;;5.20;99.90;;;;;;5001394;28;20052;-92
2022/03/15 07:20:41;;;;;;;69.03;34.28;;;5.20;99.90;;;;;;4986837;28;20603;-92
2022/03/15 07:23:07;;;;;;;79.90;35.45;;;5.40;99.90;;;;;;5001921;28;20046;-92
2022/03/15 07:25:33;;;;;;;80.90;37.63;;;5.40;99.90;;;;;;5002303;28;20045;-93
2022/03/15 07:27:59;;;;;;;70.78;35.85;;;5.60;99.90;;;;;;5017974;28;20045;-92
2022/03/15 07:30:25;;;;;;;70.78;32.25;;;5.60;99.90;;;;;;5018282;28;20080;-93
2022/03/15 07:32:50;;;;;;;82.75;35.13;;;5.60;99.90;;;;;;4985644;28;20083;-92
2022/03/15 07:35:17;;;;;;;65.10;31.30;;;5.60;99.90;;;;;;5001895;28;20068;-92
2022/03/15 07:37:55;;;;;;;73.63;33.35;;;5.60;99.90;;;;;;5018169;28;20122;-95
2022/03/15 07:40:21;;;;;;;70.47;33.13;;;5.60;99.90;;;;;;5002360;28;20041;-93
2022/03/15 07:42:48;;;;;;;67.45;33.60;;;5.60;99.90;;;;;;4985757;28;20086;-95
2022/03/15 07:45:14;;;;;;;64.63;30.92;;;5.60;99.90;;;;;;5017905;28;20049;-94
2022/03/15 07:47:40;;;;;;;59.83;31.02;;;5.70;99.90;;;;;;5001306;28;20046;-95
2022/03/15 07:50:06;;;;;;;73.63;33.97;;;5.70;99.90;;;;;;5001459;28;20045;-96
2022/03/15 07:52:32;;;;;;;73.35;35.38;;;5.80;99.90;;;;;;5017597;28;20057;-92
2022/03/15 07:54:58;;;;;;;70.00;32.92;;;5.90;99.90;;;;;;5001442;28;20056;-94
2022/03/15 07:57:25;;;;;;;72.28;36.15;;;5.90;99.90;;;;;;4985188;28;20042;-95
2022/03/15 07:59:51;;;;;;;76.15;36.63;;;6.00;99.90;;;;;;5001215;28;20470;-92
2022/03/15 08:02:17;;;;;;;71.22;35.50;;;6.10;99.90;;;;;;5000986;28;20107;-94
2022/03/15 08:04:43;;;;;;;69.78;34.78;;;6.20;99.90;;;;;;5001230;28;20141;-94
2022/03/15 08:07:09;;;;;;;73.50;34.38;;;6.30;99.90;;;;;;5033663;28;20079;-92
2022/03/15 08:09:35;;;;;;;69.22;34.47;;;6.30;99.90;;;;;;4985539;28;20077;-94
2022/03/15 08:12:01;;;;;;;65.57;34.22;;;6.40;99.90;;;;;;5017195;28;20079;-92
2022/03/15 08:14:27;;;;;;;72.53;35.25;;;6.40;99.90;;;;;;5017221;28;20041;-92
2022/03/15 08:16:53;;;;;;;70.05;35.45;;;6.60;99.90;;;;;;5000856;28;20041;-95
2022/03/15 08:19:19;;;;;;;58.55;31.83;;;6.70;99.90;;;;;;5000722;28;20037;-95
2022/03/15 08:21:44;;;;;;;74.05;35.17;;;6.70;99.90;;;;;;5017620;28;20094;-92
2022/03/15 08:24:14;;;;;;;66.18;32.38;;;6.80;99.90;;;;;;5000818;28;20128;-94
2022/03/15 08:26:41;;;;;;;59.97;32.00;;;6.80;99.90;;;;;;4985549;28;20045;-93
2022/03/15 08:29:07;;;;;;;59.17;31.70;;;6.90;99.90;;;;;;4984321;28;20499;-95
2022/03/15 08:31:34;;;;;;;61.90;34.30;;;7.00;99.90;;;;;;5000312;28;20041;-95
2022/03/15 08:33:59;;;;;;;69.55;35.63;;;7.00;99.90;;;;;;5000560;28;20081;-96
2022/03/15 08:36:25;;;;;;;58.53;32.58;;;6.90;99.90;;;;;;5000774;28;20104;-92
2022/03/15 08:38:51;;;;;;;60.33;32.35;;;7.10;99.90;;;;;;5017280;28;20550;-95
2022/03/15 08:41:17;;;;;;;56.60;31.65;;;7.40;99.90;;;;;;5016694;28;20041;-93
2022/03/15 08:43:43;;;;;;;59.78;31.40;;;7.30;99.90;;;;;;5000677;28;20073;-91
2022/03/15 08:46:09;;;;;;;51.75;29.73;;;7.40;99.90;;;;;;5016826;28;20044;-94
2022/03/15 08:48:35;;;;;;;61.28;30.60;;;7.70;99.90;;;;;;5000749;28;20045;-95
2022/03/15 08:51:01;;;;;;;56.67;32.30;;;7.80;99.90;;;;;;5000341;28;20087;-94
2022/03/15 08:53:32;;;;;;;54.38;30.13;;;8.20;99.90;;;;;;5017113;28;20085;-94
2022/03/15 08:55:58;;;;;;;51.05;29.23;;;8.10;99.90;;;;;;5001165;28;20456;-95
2022/03/15 08:58:24;;;;;;;50.03;28.25;;;8.30;99.90;;;;;;5000399;28;20055;-92
2022/03/15 09:00:52;;;;;;;42.20;27.48;;;8.30;99.90;;;;;;5033090;28;20124;-96
2022/03/15 09:03:18;;;;;;;44.08;27.52;;;8.50;99.90;;;;;;5000381;28;20077;-92
2022/03/15 09:05:44;;;;;;;45.08;26.15;;;8.40;99.90;;;;;;5016449;28;20046;-95
2022/03/15 09:08:10;;;;;;;42.33;25.83;;;8.60;99.90;;;;;;5000428;28;20076;-92
2022/03/15 09:10:36;;;;;;;38.38;25.08;;;8.60;99.90;;;;;;5016654;28;20476;-94
2022/03/15 09:13:03;;;;;;;43.08;24.63;;;8.80;99.90;;;;;;5016574;28;20049;-92
2022/03/15 09:15:29;;;;;;;39.10;23.77;;;8.90;99.90;;;;;;4984104;28;20045;-94
2022/03/15 09:17:57;;;;;;;36.80;22.70;;;9.20;99.90;;;;;;5016571;28;20059;-93
2022/03/15 09:20:24;;;;;;;37.55;24.25;;;9.20;99.90;;;;;;5000392;28;20451;-94
2022/03/15 09:22:52;;;;;;;34.35;24.17;;;9.50;99.90;;;;;;5016310;28;20037;-93
2022/03/15 09:25:18;;;;;;;35.97;22.70;;;9.60;99.90;;;;;;5016131;28;20091;-93
2022/03/15 09:27:44;;;;;;;37.60;22.05;;;9.70;99.90;;;;;;4999902;28;20041;-95
2022/03/15 09:30:10;;;;;;;33.35;21.65;;;9.80;99.90;;;;;;4999926;28;20049;-93
2022/03/15 09:32:36;;;;;;;37.45;22.52;;;9.90;99.90;;;;;;4999867;28;20042;-93
2022/03/15 09:35:02;;;;;;;33.10;19.73;;;10.10;99.90;;;;;;4983869;28;20045;-92
2022/03/15 09:37:28;;;;;;;29.70;19.42;;;10.30;99.90;;;;;;5016466;28;20374;-95
2022/03/15 09:39:57;;;;;;;30.27;20.42;;;10.40;99.90;;;;;;5001144;28;20045;-94
2022/03/15 09:42:24;;;;;;;27.17;18.65;;;10.50;91.00;;;;;;4988653;28;20472;-92
2022/03/15 09:44:51;;;;;;;29.85;19.30;;;10.50;79.70;;;;;;5004000;28;20098;-95
2022/03/15 09:47:17;;;;;;;28.40;19.73;;;10.50;61.30;;;;;;4987672;28;20041;-94
2022/03/15 09:49:45;;;;;;;33.33;21.35;;;10.50;24.10;;;;;;5020822;28;20041;-94
2022/03/15 09:52:11;;;;;;;26.90;19.17;;;10.50;27.30;;;;;;5019874;28;20057;-94
2022/03/15 09:54:38;;;;;;;35.58;19.95;;;10.50;45.50;;;;;;5019840;28;20053;-92
2022/03/15 09:57:05;;;;;;;28.65;19.27;;;10.60;36.60;;;;;;4987361;28;20041;-92
2022/03/15 09:59:32;;;;;;;33.92;19.42;;;10.50;1.00;;;;;;5003478;28;20067;-92
2022/03/15 10:01:59;;;;;;;31.52;19.85;;;10.40;1.00;;;;;;5019644;28;20041;-95
2022/03/15 10:04:26;;;;;;;32.65;20.02;;;10.30;1.00;;;;;;5003744;28;20504;-95
2022/03/15 10:06:54;;;;;;;26.50;19.02;;;10.40;1.00;;;;;;5019793;28;20054;-90
2022/03/15 10:09:21;;;;;;;30.00;19.63;;;10.40;1.00;;;;;;5019690;28;20044;-95
2022/03/15 10:11:48;;;;;;;28.63;18.73;;;10.50;1.00;;;;;;5018304;28;20045;-94
2022/03/15 10:14:17;;;;;;;26.45;17.75;;;10.70;1.00;;;;;;4981102;28;20045;-91
2022/03/15 10:16:43;;;;;;;25.90;18.60;;;11.00;1.00;;;;;;5000088;28;20405;-93
2022/03/15 10:19:11;;;;;;;29.00;18.05;;;11.30;1.00;;;;;;4983773;28;20083;-91
2022/03/15 10:21:44;;;;;;;25.63;16.73;;;11.80;1.00;;;;;;4999951;28;20074;-92
2022/03/15 10:24:13;;;;;;;24.08;16.73;;;12.10;1.00;;;;;;5002002;28;20042;-92
2022/03/15 10:26:40;;;;;;;24.10;16.60;;;12.20;1.00;;;;;;5000053;28;20046;-94
2022/03/15 10:29:11;;;;;;;27.92;16.48;;;12.30;99.90;;;;;;4983468;28;20045;-92
2022/03/15 10:31:37;;;;;;;21.27;16.60;;;12.30;99.90;;;;;;4983618;28;20413;-95
2022/03/15 10:34:07;;;;;;;25.83;16.17;;;12.40;99.90;;;;;;4999868;28;20038;-92
2022/03/15 10:36:40;;;;;;;20.60;15.75;;;12.40;99.90;;;;;;4983983;28;20060;-92
2022/03/15 10:39:08;;;;;;;23.10;16.48;;;12.20;99.90;;;;;;4999228;28;20057;-93
2022/03/15 10:41:49;;;;;;;25.35;17.13;;;12.10;99.90;;;;;;5015616;28;20052;-94
2022/03/15 10:44:26;;;;;;;27.45;16.25;;;11.90;99.90;;;;;;4999444;28;20049;-92
2022/03/15 10:47:04;;;;;;;30.58;17.60;;;11.60;99.90;;;;;;4999291;28;20448;-95
2022/03/15 10:49:32;;;;;;;27.75;16.75;;;11.50;99.90;;;;;;5015513;28;20050;-96
2022/03/15 10:51:58;;;;;;;23.80;16.60;;;11.30;99.90;;;;;;4998490;28;20054;-94
2022/03/15 10:54:26;;;;;;;25.38;16.15;;;11.30;99.90;;;;;;4983370;28;20390;-92
2022/03/15 10:56:57;;;;;;;22.98;15.93;;;11.30;99.90;;;;;;4998909;28;20038;-93
2022/03/15 10:59:23;;;;;;;23.27;15.35;;;11.40;99.90;;;;;;4998883;28;20042;-92
2022/03/15 11:01:50;;;;;;;28.15;16.05;;;11.50;99.90;;;;;;4998822;28;20045;-92
2022/03/15 11:04:17;;;;;;;26.83;16.58;;;11.70;99.90;;;;;;4983198;28;20042;-94
2022/03/15 11:06:51;;;;;;;23.10;16.17;;;11.80;99.90;;;;;;4999094;28;20497;-93
2022/03/15 11:09:24;;;;;;;23.55;15.90;;;12.00;99.90;;;;;;5015270;28;20049;-92
2022/03/15 11:12:04;;;;;;;27.02;16.80;;;12.10;99.90;;;;;;4999067;28;20570;-92
2022/03/15 11:14:57;;;;;;;23.58;16.05;;;12.20;99.90;;;;;;4998720;28;20050;-92
2022/03/15 11:17:25;;;;;;;28.00;16.58;;;12.10;99.90;;;;;;4998738;28;20049;-92
2022/03/15 11:19:55;;;;;;;25.05;15.85;;;12.00;99.90;;;;;;4982913;28;20046;-93
2022/03/15 11:22:35;;;;;;;24.90;15.27;;;11.90;99.90;;;;;;4998566;28;20081;-92
2022/03/15 11:25:08;;;;;;;20.70;14.55;;;11.80;99.90;;;;;;4998947;28;20046;-92
2022/03/15 11:27:41;;;;;;;18.67;14.20;;;11.80;99.90;;;;;;4998986;28;20079;-92
2022/03/15 11:30:10;;;;;;;22.13;13.38;;;11.70;99.90;;;;;;4998459;28;20050;-95
2022/03/15 11:32:37;;;;;;;22.15;12.88;;;11.80;99.90;;;;;;5015571;28;20052;-93
2022/03/15 11:35:05;;;;;;;23.95;13.00;;;11.80;99.90;;;;;;4982464;28;20045;-94
2022/03/15 11:37:31;;;;;;;21.85;13.23;;;11.70;99.90;;;;;;4998436;28;20107;-93
2022/03/15 11:40:03;;;;;;;20.60;13.35;;;11.70;99.90;;;;;;4982122;28;20045;-94
2022/03/15 11:42:29;;;;;;;21.08;12.15;;;11.60;99.90;;;;;;4982704;28;20111;-95
2022/03/15 11:45:23;;;;;;;17.15;10.18;;;11.40;99.90;;;;;;4997927;28;20049;-93
2022/03/15 11:47:55;;;;;;;12.18;7.07;;;11.20;1.00;;;;;;4998397;28;20122;-93
2022/03/15 11:50:35;;;;;;;8.90;5.25;;;11.00;1.00;;;;;;5014300;28;20127;-92
2022/03/15 11:53:17;;;;;;;8.60;4.70;;;10.90;1.00;;;;;;4997282;28;20045;-93
2022/03/15 11:56:29;;;;;;;11.33;6.07;;;10.70;1.00;;;;;;5014222;28;20128;-92
2022/03/15 11:58:58;;;;;;;11.43;6.40;;;10.70;1.00;;;;;;4997784;28;20061;-94
2022/03/15 12:01:23;;;;;;;10.57;4.72;;;10.60;32.10;;;;;;4982165;28;20081;-92
2022/03/15 12:03:52;;;;;;;10.07;5.13;;;10.50;99.90;;;;;;4998299;28;20053;-91
2022/03/15 12:06:30;;;;;;;12.80;5.63;;;10.30;99.90;;;;;;4997516;28;20132;-95
2022/03/15 12:09:00;;;;;;;13.20;5.95;;;10.00;99.90;;;;;;4997757;28;20045;-93
2022/03/15 12:11:34;;;;;;;16.70;6.13;;;9.80;99.90;;;;;;4997453;28;20046;-89
2022/03/15 12:14:09;;;;;;;16.13;6.40;;;9.70;99.90;;;;;;4997152;28;20049;-89
2022/03/15 12:16:44;;;;;;;15.65;5.72;;;9.60;99.90;;;;;;4997356;28;20045;-88
2022/03/15 12:19:23;;;;;;;12.95;5.03;;;9.40;99.90;;;;;;4997456;28;20452;-88
2022/03/15 12:21:54;;;;;;;14.05;5.70;;;9.30;99.90;;;;;;5012976;28;20050;-93
2022/03/15 12:24:32;;;;;;;14.10;6.22;;;9.00;99.90;;;;;;4996806;28;20038;-92
2022/03/15 12:27:03;;;;;;;15.82;6.07;;;9.30;99.90;;;;;;4996664;28;20500;-88
2022/03/15 12:29:30;;;;;;;19.02;6.28;;;9.40;99.90;;;;;;5013381;28;20053;-88
2022/03/15 12:32:09;;;;;;;25.70;9.00;;;9.10;99.90;;;;;;4996448;28;20038;-90
2022/03/15 12:34:35;;;;;;;24.60;11.27;;;9.30;99.90;;;;;;5013602;28;20054;-93
2022/03/15 12:37:01;;;;;;;32.22;14.90;;;9.90;99.90;;;;;;4996831;28;20409;-93